KBGM/BGM METAR and TAF weather

Enter ICAO airport designator
Station Type Date Time Source
KBGM METAR 2021/05/15 00:53 UTC NOAA

KBGM 150053Z 36005KT 10SM CLR 14/M01 A3021 RMK AO2 SLP229 T01441006


Station Type Date Time Source
KBGM Decoded METAR 2021/05/15 00:53 UTC NOAA

BINGHAMTON REGIONAL AIRPORT, NY, United States (KBGM) 42-12N 75-59W 492M
May 14, 2021 - 08:53 PM EDT / 2021.05.15 0053 UTC
Wind: from the N (360 degrees) at 6 MPH (5 KT):0
Visibility: 10 mile(s):0
Sky conditions: clear
Temperature: 57.9 F (14.4 C)
Dew Point: 30.9 F (-0.6 C)
Relative Humidity: 35%
Pressure (altimeter): 30.21 in. Hg (1023 hPa)
ob: KBGM 150053Z 36005KT 10SM CLR 14/M01 A3021 RMK AO2 SLP229 T01441006
cycle: 1

Station Type Date Time Source
KBGM TAF 2021/05/14 19:24 UTC NOAA

TAF
AMD KBGM 141923Z 1419/1518 30009KT P6SM BKN060
FM150000 33005KT P6SM SKC

Example: see airport list